sensor_id;sensor_type;location;lat;lon;timestamp;P1;durP1;ratioP1;P2;durP2;ratioP2
56830;SDS011;42713;42.676;23.352;2023-02-07T00:00:38;11.15;;;4.35;;
56830;SDS011;42713;42.676;23.352;2023-02-07T00:03:08;9.40;;;4.30;;
56830;SDS011;42713;42.676;23.352;2023-02-07T00:05:33;8.68;;;3.58;;
56830;SDS011;42713;42.676;23.352;2023-02-07T00:08:00;11.05;;;4.47;;
56830;SDS011;42713;42.676;23.352;2023-02-07T00:10:29;10.90;;;4.47;;
56830;SDS011;42713;42.676;23.352;2023-02-07T00:12:55;9.13;;;3.75;;
56830;SDS011;42713;42.676;23.352;2023-02-07T00:15:20;9.68;;;4.20;;
56830;SDS011;42713;42.676;23.352;2023-02-07T00:17:46;9.20;;;3.80;;
56830;SDS011;42713;42.676;23.352;2023-02-07T00:20:11;8.45;;;4.30;;
56830;SDS011;42713;42.676;23.352;2023-02-07T00:22:37;10.43;;;4.13;;
56830;SDS011;42713;42.676;23.352;2023-02-07T00:25:02;10.20;;;4.30;;
56830;SDS011;42713;42.676;23.352;2023-02-07T00:27:28;11.98;;;4.45;;
56830;SDS011;42713;42.676;23.352;2023-02-07T00:29:54;8.13;;;3.95;;
56830;SDS011;42713;42.676;23.352;2023-02-07T00:32:19;10.77;;;4.15;;
56830;SDS011;42713;42.676;23.352;2023-02-07T00:34:45;9.15;;;4.20;;
56830;SDS011;42713;42.676;23.352;2023-02-07T00:37:12;10.55;;;4.53;;
56830;SDS011;42713;42.676;23.352;2023-02-07T00:39:37;9.25;;;3.97;;
56830;SDS011;42713;42.676;23.352;2023-02-07T00:42:03;10.70;;;4.40;;
56830;SDS011;42713;42.676;23.352;2023-02-07T00:44:30;11.85;;;4.75;;
56830;SDS011;42713;42.676;23.352;2023-02-07T00:46:57;9.73;;;3.92;;
56830;SDS011;42713;42.676;23.352;2023-02-07T00:49:32;11.20;;;4.45;;
56830;SDS011;42713;42.676;23.352;2023-02-07T00:51:58;10.10;;;3.80;;
56830;SDS011;42713;42.676;23.352;2023-02-07T00:54:42;10.85;;;4.88;;
56830;SDS011;42713;42.676;23.352;2023-02-07T00:57:11;9.93;;;4.55;;
56830;SDS011;42713;42.676;23.352;2023-02-07T00:59:36;11.30;;;4.28;;
56830;SDS011;42713;42.676;23.352;2023-02-07T01:02:08;11.45;;;4.40;;
56830;SDS011;42713;42.676;23.352;2023-02-07T01:04:36;9.95;;;4.47;;
56830;SDS011;42713;42.676;23.352;2023-02-07T01:07:01;11.23;;;4.82;;
56830;SDS011;42713;42.676;23.352;2023-02-07T01:09:27;10.63;;;4.35;;
56830;SDS011;42713;42.676;23.352;2023-02-07T01:12:10;10.68;;;4.38;;
56830;SDS011;42713;42.676;23.352;2023-02-07T01:14:36;13.02;;;4.85;;
56830;SDS011;42713;42.676;23.352;2023-02-07T01:17:01;10.05;;;4.57;;
56830;SDS011;42713;42.676;23.352;2023-02-07T01:19:27;9.57;;;3.97;;
56830;SDS011;42713;42.676;23.352;2023-02-07T01:21:52;9.55;;;4.55;;
56830;SDS011;42713;42.676;23.352;2023-02-07T01:24:18;10.32;;;4.88;;
56830;SDS011;42713;42.676;23.352;2023-02-07T01:26:43;10.95;;;4.70;;
56830;SDS011;42713;42.676;23.352;2023-02-07T01:29:09;10.98;;;4.95;;
56830;SDS011;42713;42.676;23.352;2023-02-07T01:31:39;9.90;;;4.70;;
56830;SDS011;42713;42.676;23.352;2023-02-07T01:34:05;9.82;;;4.50;;
56830;SDS011;42713;42.676;23.352;2023-02-07T01:36:30;12.52;;;4.75;;
56830;SDS011;42713;42.676;23.352;2023-02-07T01:38:56;9.70;;;4.18;;
56830;SDS011;42713;42.676;23.352;2023-02-07T01:41:22;10.50;;;4.53;;
56830;SDS011;42713;42.676;23.352;2023-02-07T01:43:53;10.30;;;4.35;;
56830;SDS011;42713;42.676;23.352;2023-02-07T01:46:19;9.60;;;4.00;;
56830;SDS011;42713;42.676;23.352;2023-02-07T01:48:44;9.57;;;4.10;;
56830;SDS011;42713;42.676;23.352;2023-02-07T01:51:10;10.68;;;4.65;;
56830;SDS011;42713;42.676;23.352;2023-02-07T01:53:36;10.00;;;4.18;;
56830;SDS011;42713;42.676;23.352;2023-02-07T01:56:03;12.95;;;4.90;;
56830;SDS011;42713;42.676;23.352;2023-02-07T01:58:33;12.15;;;4.43;;
56830;SDS011;42713;42.676;23.352;2023-02-07T02:01:00;10.32;;;4.60;;
56830;SDS011;42713;42.676;23.352;2023-02-07T02:03:30;11.88;;;4.90;;
56830;SDS011;42713;42.676;23.352;2023-02-07T02:05:57;13.13;;;5.15;;
56830;SDS011;42713;42.676;23.352;2023-02-07T02:08:23;13.57;;;4.95;;
56830;SDS011;42713;42.676;23.352;2023-02-07T02:16:27;12.50;;;4.95;;
56830;SDS011;42713;42.676;23.352;2023-02-07T02:21:59;13.27;;;5.05;;
56830;SDS011;42713;42.676;23.352;2023-02-07T02:30:31;14.63;;;5.88;;
56830;SDS011;42713;42.676;23.352;2023-02-07T02:36:00;12.32;;;5.45;;
56830;SDS011;42713;42.676;23.352;2023-02-07T02:38:33;12.07;;;5.00;;
56830;SDS011;42713;42.676;23.352;2023-02-07T02:41:11;13.50;;;4.80;;
56830;SDS011;42713;42.676;23.352;2023-02-07T02:43:52;10.50;;;4.18;;
56830;SDS011;42713;42.676;23.352;2023-02-07T02:46:24;11.73;;;4.90;;
56830;SDS011;42713;42.676;23.352;2023-02-07T02:48:54;15.57;;;5.72;;
56830;SDS011;42713;42.676;23.352;2023-02-07T02:51:21;12.15;;;5.13;;
56830;SDS011;42713;42.676;23.352;2023-02-07T02:53:53;11.60;;;5.35;;
56830;SDS011;42713;42.676;23.352;2023-02-07T02:59:06;12.60;;;5.22;;
56830;SDS011;42713;42.676;23.352;2023-02-07T03:07:34;13.23;;;5.53;;
56830;SDS011;42713;42.676;23.352;2023-02-07T03:19:06;13.38;;;5.07;;
56830;SDS011;42713;42.676;23.352;2023-02-07T03:21:59;13.35;;;5.30;;
56830;SDS011;42713;42.676;23.352;2023-02-07T03:24:30;12.88;;;5.40;;
56830;SDS011;42713;42.676;23.352;2023-02-07T03:26:59;12.30;;;4.50;;
56830;SDS011;42713;42.676;23.352;2023-02-07T03:29:29;11.48;;;5.07;;
56830;SDS011;42713;42.676;23.352;2023-02-07T03:31:57;14.18;;;4.88;;
56830;SDS011;42713;42.676;23.352;2023-02-07T03:34:28;12.48;;;4.88;;
56830;SDS011;42713;42.676;23.352;2023-02-07T03:37:09;10.82;;;4.65;;
56830;SDS011;42713;42.676;23.352;2023-02-07T03:39:40;11.57;;;4.60;;
56830;SDS011;42713;42.676;23.352;2023-02-07T03:42:14;10.70;;;4.78;;
56830;SDS011;42713;42.676;23.352;2023-02-07T03:44:47;11.48;;;4.60;;
56830;SDS011;42713;42.676;23.352;2023-02-07T03:47:16;12.60;;;4.88;;
56830;SDS011;42713;42.676;23.352;2023-02-07T03:49:41;11.02;;;4.43;;
56830;SDS011;42713;42.676;23.352;2023-02-07T03:52:07;11.13;;;4.85;;
56830;SDS011;42713;42.676;23.352;2023-02-07T03:54:33;10.55;;;4.50;;
56830;SDS011;42713;42.676;23.352;2023-02-07T03:56:58;9.77;;;4.32;;
56830;SDS011;42713;42.676;23.352;2023-02-07T03:59:24;11.65;;;4.53;;
56830;SDS011;42713;42.676;23.352;2023-02-07T04:01:49;11.57;;;4.25;;
56830;SDS011;42713;42.676;23.352;2023-02-07T04:04:14;9.30;;;4.03;;
56830;SDS011;42713;42.676;23.352;2023-02-07T04:06:40;11.90;;;4.78;;
56830;SDS011;42713;42.676;23.352;2023-02-07T04:09:05;12.77;;;5.10;;
56830;SDS011;42713;42.676;23.352;2023-02-07T04:11:31;10.15;;;5.10;;
56830;SDS011;42713;42.676;23.352;2023-02-07T04:13:56;10.52;;;4.95;;
56830;SDS011;42713;42.676;23.352;2023-02-07T04:16:23;16.13;;;5.72;;
56830;SDS011;42713;42.676;23.352;2023-02-07T04:18:48;11.48;;;4.65;;
56830;SDS011;42713;42.676;23.352;2023-02-07T04:21:13;9.30;;;3.90;;
56830;SDS011;42713;42.676;23.352;2023-02-07T04:23:39;12.13;;;4.75;;
56830;SDS011;42713;42.676;23.352;2023-02-07T04:26:04;10.68;;;4.78;;
56830;SDS011;42713;42.676;23.352;2023-02-07T04:28:30;11.55;;;4.78;;
56830;SDS011;42713;42.676;23.352;2023-02-07T04:30:55;11.50;;;4.68;;
56830;SDS011;42713;42.676;23.352;2023-02-07T04:33:21;10.43;;;4.60;;
56830;SDS011;42713;42.676;23.352;2023-02-07T04:35:57;11.38;;;4.95;;
56830;SDS011;42713;42.676;23.352;2023-02-07T04:38:24;12.82;;;5.05;;
56830;SDS011;42713;42.676;23.352;2023-02-07T04:40:50;10.63;;;4.28;;
56830;SDS011;42713;42.676;23.352;2023-02-07T04:43:17;10.15;;;4.15;;
56830;SDS011;42713;42.676;23.352;2023-02-07T04:45:44;10.77;;;4.28;;
56830;SDS011;42713;42.676;23.352;2023-02-07T04:48:12;11.88;;;4.88;;
56830;SDS011;42713;42.676;23.352;2023-02-07T04:50:37;14.00;;;5.47;;
56830;SDS011;42713;42.676;23.352;2023-02-07T04:53:02;11.95;;;5.00;;
56830;SDS011;42713;42.676;23.352;2023-02-07T04:55:28;12.80;;;5.05;;
56830;SDS011;42713;42.676;23.352;2023-02-07T04:57:53;13.60;;;5.35;;
56830;SDS011;42713;42.676;23.352;2023-02-07T05:00:19;12.77;;;4.93;;
56830;SDS011;42713;42.676;23.352;2023-02-07T05:02:44;12.10;;;5.50;;
56830;SDS011;42713;42.676;23.352;2023-02-07T05:05:10;12.70;;;5.72;;
56830;SDS011;42713;42.676;23.352;2023-02-07T05:07:35;12.95;;;5.38;;
56830;SDS011;42713;42.676;23.352;2023-02-07T05:10:01;14.45;;;5.97;;
56830;SDS011;42713;42.676;23.352;2023-02-07T05:12:27;12.52;;;5.95;;
56830;SDS011;42713;42.676;23.352;2023-02-07T05:14:52;13.85;;;6.18;;
56830;SDS011;42713;42.676;23.352;2023-02-07T05:17:17;12.90;;;5.57;;
56830;SDS011;42713;42.676;23.352;2023-02-07T05:19:43;12.40;;;5.97;;
56830;SDS011;42713;42.676;23.352;2023-02-07T05:22:08;13.98;;;6.15;;
56830;SDS011;42713;42.676;23.352;2023-02-07T05:24:34;13.85;;;5.93;;
56830;SDS011;42713;42.676;23.352;2023-02-07T05:27:00;15.77;;;5.82;;
56830;SDS011;42713;42.676;23.352;2023-02-07T05:29:25;12.25;;;5.97;;
56830;SDS011;42713;42.676;23.352;2023-02-07T05:31:51;15.15;;;6.18;;
56830;SDS011;42713;42.676;23.352;2023-02-07T05:34:34;12.40;;;5.57;;
56830;SDS011;42713;42.676;23.352;2023-02-07T05:37:01;15.20;;;6.25;;
56830;SDS011;42713;42.676;23.352;2023-02-07T05:39:26;13.85;;;5.47;;
56830;SDS011;42713;42.676;23.352;2023-02-07T05:41:51;13.35;;;5.60;;
56830;SDS011;42713;42.676;23.352;2023-02-07T05:44:17;14.27;;;5.88;;
56830;SDS011;42713;42.676;23.352;2023-02-07T05:46:47;13.20;;;6.22;;
56830;SDS011;42713;42.676;23.352;2023-02-07T05:49:12;13.55;;;5.85;;
56830;SDS011;42713;42.676;23.352;2023-02-07T05:51:38;14.00;;;5.85;;
56830;SDS011;42713;42.676;23.352;2023-02-07T05:54:04;14.27;;;7.25;;
56830;SDS011;42713;42.676;23.352;2023-02-07T05:56:29;14.52;;;6.78;;
56830;SDS011;42713;42.676;23.352;2023-02-07T05:58:55;15.80;;;6.50;;
56830;SDS011;42713;42.676;23.352;2023-02-07T06:01:20;14.95;;;5.90;;
56830;SDS011;42713;42.676;23.352;2023-02-07T06:03:46;12.52;;;5.90;;
56830;SDS011;42713;42.676;23.352;2023-02-07T06:06:11;16.55;;;6.50;;
56830;SDS011;42713;42.676;23.352;2023-02-07T06:08:37;15.95;;;6.90;;
56830;SDS011;42713;42.676;23.352;2023-02-07T06:11:02;16.55;;;6.90;;
56830;SDS011;42713;42.676;23.352;2023-02-07T06:13:28;16.23;;;7.55;;
56830;SDS011;42713;42.676;23.352;2023-02-07T06:15:53;16.83;;;7.40;;
56830;SDS011;42713;42.676;23.352;2023-02-07T06:18:19;17.27;;;6.75;;
56830;SDS011;42713;42.676;23.352;2023-02-07T06:20:44;18.25;;;7.80;;
56830;SDS011;42713;42.676;23.352;2023-02-07T06:23:10;17.15;;;7.55;;
56830;SDS011;42713;42.676;23.352;2023-02-07T06:25:35;17.75;;;7.72;;
56830;SDS011;42713;42.676;23.352;2023-02-07T06:28:01;18.48;;;7.80;;
56830;SDS011;42713;42.676;23.352;2023-02-07T06:30:26;15.43;;;6.85;;
56830;SDS011;42713;42.676;23.352;2023-02-07T06:32:52;18.73;;;7.55;;
56830;SDS011;42713;42.676;23.352;2023-02-07T06:35:17;19.48;;;7.60;;
56830;SDS011;42713;42.676;23.352;2023-02-07T06:37:43;21.70;;;9.02;;
56830;SDS011;42713;42.676;23.352;2023-02-07T06:40:09;22.70;;;9.85;;
56830;SDS011;42713;42.676;23.352;2023-02-07T06:42:36;19.55;;;8.73;;
56830;SDS011;42713;42.676;23.352;2023-02-07T06:45:02;22.08;;;10.30;;
56830;SDS011;42713;42.676;23.352;2023-02-07T06:47:28;22.10;;;10.35;;
56830;SDS011;42713;42.676;23.352;2023-02-07T06:49:53;22.15;;;11.10;;
56830;SDS011;42713;42.676;23.352;2023-02-07T06:52:18;23.83;;;10.80;;
56830;SDS011;42713;42.676;23.352;2023-02-07T06:54:45;24.45;;;10.48;;
56830;SDS011;42713;42.676;23.352;2023-02-07T06:57:10;27.65;;;11.20;;
56830;SDS011;42713;42.676;23.352;2023-02-07T06:59:35;22.33;;;10.30;;
56830;SDS011;42713;42.676;23.352;2023-02-07T07:02:01;18.15;;;8.73;;
56830;SDS011;42713;42.676;23.352;2023-02-07T07:04:27;20.77;;;9.63;;
56830;SDS011;42713;42.676;23.352;2023-02-07T07:06:53;18.55;;;9.10;;
56830;SDS011;42713;42.676;23.352;2023-02-07T07:09:19;22.20;;;10.18;;
56830;SDS011;42713;42.676;23.352;2023-02-07T07:11:44;22.77;;;10.35;;
56830;SDS011;42713;42.676;23.352;2023-02-07T07:14:10;21.38;;;10.18;;
56830;SDS011;42713;42.676;23.352;2023-02-07T07:16:36;22.13;;;9.65;;
56830;SDS011;42713;42.676;23.352;2023-02-07T07:19:02;20.58;;;9.48;;
56830;SDS011;42713;42.676;23.352;2023-02-07T07:21:28;19.58;;;8.25;;
56830;SDS011;42713;42.676;23.352;2023-02-07T07:23:54;25.17;;;9.30;;
56830;SDS011;42713;42.676;23.352;2023-02-07T07:26:20;20.48;;;9.43;;
56830;SDS011;42713;42.676;23.352;2023-02-07T07:28:45;20.42;;;8.65;;
56830;SDS011;42713;42.676;23.352;2023-02-07T07:31:11;18.73;;;9.48;;
56830;SDS011;42713;42.676;23.352;2023-02-07T07:33:37;21.95;;;9.45;;
56830;SDS011;42713;42.676;23.352;2023-02-07T07:36:03;18.35;;;9.07;;
56830;SDS011;42713;42.676;23.352;2023-02-07T07:38:29;20.33;;;9.20;;
56830;SDS011;42713;42.676;23.352;2023-02-07T07:40:55;22.60;;;9.95;;
56830;SDS011;42713;42.676;23.352;2023-02-07T07:43:21;20.95;;;9.60;;
56830;SDS011;42713;42.676;23.352;2023-02-07T07:45:53;20.77;;;10.07;;
56830;SDS011;42713;42.676;23.352;2023-02-07T07:48:24;24.23;;;10.10;;
56830;SDS011;42713;42.676;23.352;2023-02-07T07:50:50;22.40;;;10.15;;
56830;SDS011;42713;42.676;23.352;2023-02-07T07:53:16;20.05;;;9.52;;
56830;SDS011;42713;42.676;23.352;2023-02-07T07:55:47;21.95;;;9.93;;
56830;SDS011;42713;42.676;23.352;2023-02-07T07:58:18;23.08;;;10.20;;
56830;SDS011;42713;42.676;23.352;2023-02-07T08:00:44;24.30;;;9.90;;
56830;SDS011;42713;42.676;23.352;2023-02-07T08:03:11;19.92;;;8.82;;
56830;SDS011;42713;42.676;23.352;2023-02-07T08:05:37;18.90;;;8.15;;
56830;SDS011;42713;42.676;23.352;2023-02-07T08:08:03;20.80;;;8.93;;
56830;SDS011;42713;42.676;23.352;2023-02-07T08:10:29;17.02;;;7.85;;
56830;SDS011;42713;42.676;23.352;2023-02-07T08:12:55;17.88;;;8.75;;
56830;SDS011;42713;42.676;23.352;2023-02-07T08:15:21;22.25;;;10.27;;
56830;SDS011;42713;42.676;23.352;2023-02-07T08:17:49;20.55;;;9.57;;
56830;SDS011;42713;42.676;23.352;2023-02-07T08:20:14;21.58;;;9.35;;
56830;SDS011;42713;42.676;23.352;2023-02-07T08:22:41;23.27;;;10.38;;
56830;SDS011;42713;42.676;23.352;2023-02-07T08:25:07;22.38;;;9.40;;
56830;SDS011;42713;42.676;23.352;2023-02-07T08:27:32;19.33;;;9.65;;
56830;SDS011;42713;42.676;23.352;2023-02-07T08:29:58;23.08;;;9.40;;
56830;SDS011;42713;42.676;23.352;2023-02-07T08:32:23;17.10;;;8.65;;
56830;SDS011;42713;42.676;23.352;2023-02-07T08:34:49;20.55;;;8.55;;
56830;SDS011;42713;42.676;23.352;2023-02-07T08:37:14;22.58;;;9.75;;
56830;SDS011;42713;42.676;23.352;2023-02-07T08:39:40;20.00;;;9.30;;
56830;SDS011;42713;42.676;23.352;2023-02-07T08:42:06;18.25;;;8.65;;
56830;SDS011;42713;42.676;23.352;2023-02-07T08:44:32;15.65;;;7.38;;
56830;SDS011;42713;42.676;23.352;2023-02-07T08:47:01;19.05;;;9.10;;
56830;SDS011;42713;42.676;23.352;2023-02-07T08:49:28;17.02;;;8.20;;
56830;SDS011;42713;42.676;23.352;2023-02-07T08:51:53;20.02;;;8.75;;
56830;SDS011;42713;42.676;23.352;2023-02-07T08:54:18;19.60;;;8.60;;
56830;SDS011;42713;42.676;23.352;2023-02-07T08:56:44;20.65;;;9.27;;
56830;SDS011;42713;42.676;23.352;2023-02-07T08:59:10;21.73;;;9.80;;
56830;SDS011;42713;42.676;23.352;2023-02-07T09:01:36;20.00;;;9.15;;
56830;SDS011;42713;42.676;23.352;2023-02-07T09:04:01;20.10;;;8.70;;
56830;SDS011;42713;42.676;23.352;2023-02-07T09:06:27;19.17;;;8.35;;
56830;SDS011;42713;42.676;23.352;2023-02-07T09:08:53;22.15;;;9.25;;
56830;SDS011;42713;42.676;23.352;2023-02-07T09:11:19;20.55;;;8.80;;
56830;SDS011;42713;42.676;23.352;2023-02-07T09:13:44;21.10;;;9.98;;
56830;SDS011;42713;42.676;23.352;2023-02-07T09:16:13;23.38;;;10.45;;
56830;SDS011;42713;42.676;23.352;2023-02-07T09:18:39;20.25;;;9.70;;
56830;SDS011;42713;42.676;23.352;2023-02-07T09:21:05;23.08;;;9.48;;
56830;SDS011;42713;42.676;23.352;2023-02-07T09:23:31;20.25;;;8.48;;
56830;SDS011;42713;42.676;23.352;2023-02-07T09:26:01;20.08;;;9.38;;
56830;SDS011;42713;42.676;23.352;2023-02-07T09:28:31;21.13;;;10.30;;
56830;SDS011;42713;42.676;23.352;2023-02-07T09:30:57;21.13;;;9.70;;
56830;SDS011;42713;42.676;23.352;2023-02-07T09:33:22;21.42;;;8.07;;
56830;SDS011;42713;42.676;23.352;2023-02-07T09:35:48;15.95;;;6.70;;
56830;SDS011;42713;42.676;23.352;2023-02-07T09:38:15;17.02;;;8.35;;
56830;SDS011;42713;42.676;23.352;2023-02-07T09:40:43;16.25;;;8.43;;
56830;SDS011;42713;42.676;23.352;2023-02-07T09:43:17;23.90;;;8.85;;
56830;SDS011;42713;42.676;23.352;2023-02-07T09:45:46;20.13;;;9.35;;
56830;SDS011;42713;42.676;23.352;2023-02-07T09:48:19;20.55;;;7.82;;
56830;SDS011;42713;42.676;23.352;2023-02-07T09:50:49;19.40;;;8.43;;
56830;SDS011;42713;42.676;23.352;2023-02-07T09:53:24;16.63;;;8.20;;
56830;SDS011;42713;42.676;23.352;2023-02-07T09:55:55;16.80;;;8.45;;
56830;SDS011;42713;42.676;23.352;2023-02-07T10:01:19;18.15;;;8.40;;
56830;SDS011;42713;42.676;23.352;2023-02-07T10:06:24;21.08;;;8.77;;
56830;SDS011;42713;42.676;23.352;2023-02-07T10:08:52;19.58;;;9.20;;
56830;SDS011;42713;42.676;23.352;2023-02-07T10:11:26;20.08;;;8.90;;
56830;SDS011;42713;42.676;23.352;2023-02-07T10:14:08;23.67;;;8.68;;
56830;SDS011;42713;42.676;23.352;2023-02-07T10:21:50;16.90;;;7.88;;
56830;SDS011;42713;42.676;23.352;2023-02-07T10:24:23;17.40;;;8.50;;
56830;SDS011;42713;42.676;23.352;2023-02-07T10:26:53;21.92;;;9.52;;
56830;SDS011;42713;42.676;23.352;2023-02-07T10:32:23;18.00;;;8.93;;
56830;SDS011;42713;42.676;23.352;2023-02-07T10:34:54;21.38;;;9.70;;
56830;SDS011;42713;42.676;23.352;2023-02-07T10:37:26;21.50;;;9.88;;
56830;SDS011;42713;42.676;23.352;2023-02-07T10:39:57;17.80;;;8.60;;
56830;SDS011;42713;42.676;23.352;2023-02-07T10:42:30;19.75;;;9.73;;
56830;SDS011;42713;42.676;23.352;2023-02-07T10:45:00;17.45;;;8.23;;
56830;SDS011;42713;42.676;23.352;2023-02-07T10:47:28;20.17;;;9.07;;
56830;SDS011;42713;42.676;23.352;2023-02-07T10:49:54;19.60;;;9.02;;
56830;SDS011;42713;42.676;23.352;2023-02-07T10:55:16;19.95;;;9.35;;
56830;SDS011;42713;42.676;23.352;2023-02-07T10:57:50;18.98;;;8.75;;
56830;SDS011;42713;42.676;23.352;2023-02-07T11:00:26;20.92;;;8.63;;
56830;SDS011;42713;42.676;23.352;2023-02-07T11:02:54;19.85;;;9.13;;
56830;SDS011;42713;42.676;23.352;2023-02-07T11:05:27;15.43;;;6.85;;
56830;SDS011;42713;42.676;23.352;2023-02-07T11:07:56;15.43;;;7.13;;
56830;SDS011;42713;42.676;23.352;2023-02-07T11:10:42;14.35;;;6.60;;
56830;SDS011;42713;42.676;23.352;2023-02-07T11:13:16;15.02;;;6.10;;
56830;SDS011;42713;42.676;23.352;2023-02-07T11:29:18;15.73;;;7.68;;
56830;SDS011;42713;42.676;23.352;2023-02-07T11:31:45;19.42;;;8.15;;
56830;SDS011;42713;42.676;23.352;2023-02-07T11:37:15;20.83;;;8.38;;
56830;SDS011;42713;42.676;23.352;2023-02-07T11:39:48;16.20;;;8.35;;
56830;SDS011;42713;42.676;23.352;2023-02-07T11:42:26;14.95;;;6.25;;
56830;SDS011;42713;42.676;23.352;2023-02-07T11:44:55;14.35;;;6.45;;
56830;SDS011;42713;42.676;23.352;2023-02-07T11:47:27;18.88;;;8.10;;
56830;SDS011;42713;42.676;23.352;2023-02-07T11:50:10;16.52;;;7.95;;
56830;SDS011;42713;42.676;23.352;2023-02-07T11:52:52;15.10;;;6.60;;
56830;SDS011;42713;42.676;23.352;2023-02-07T11:55:21;13.10;;;6.15;;
56830;SDS011;42713;42.676;23.352;2023-02-07T11:58:28;15.77;;;6.75;;
56830;SDS011;42713;42.676;23.352;2023-02-07T12:01:01;13.50;;;6.40;;
56830;SDS011;42713;42.676;23.352;2023-02-07T12:06:00;16.00;;;7.23;;
56830;SDS011;42713;42.676;23.352;2023-02-07T12:08:30;17.92;;;7.47;;
56830;SDS011;42713;42.676;23.352;2023-02-07T12:11:00;17.95;;;7.13;;
56830;SDS011;42713;42.676;23.352;2023-02-07T12:13:38;13.00;;;6.43;;
56830;SDS011;42713;42.676;23.352;2023-02-07T12:22:03;15.38;;;6.25;;
56830;SDS011;42713;42.676;23.352;2023-02-07T12:24:34;15.93;;;7.85;;
56830;SDS011;42713;42.676;23.352;2023-02-07T12:27:11;19.30;;;7.82;;
56830;SDS011;42713;42.676;23.352;2023-02-07T12:29:53;15.98;;;6.97;;
56830;SDS011;42713;42.676;23.352;2023-02-07T12:40:55;15.52;;;6.97;;
56830;SDS011;42713;42.676;23.352;2023-02-07T12:43:27;15.90;;;7.43;;
56830;SDS011;42713;42.676;23.352;2023-02-07T12:51:25;14.38;;;7.05;;
56830;SDS011;42713;42.676;23.352;2023-02-07T12:57:09;17.50;;;8.52;;
56830;SDS011;42713;42.676;23.352;2023-02-07T13:05:24;14.48;;;6.82;;
56830;SDS011;42713;42.676;23.352;2023-02-07T13:19:09;17.52;;;8.32;;
56830;SDS011;42713;42.676;23.352;2023-02-07T13:21:53;17.02;;;7.18;;
56830;SDS011;42713;42.676;23.352;2023-02-07T13:24:26;16.83;;;7.03;;
56830;SDS011;42713;42.676;23.352;2023-02-07T13:26:56;15.05;;;7.00;;
56830;SDS011;42713;42.676;23.352;2023-02-07T13:29:25;16.60;;;7.40;;
56830;SDS011;42713;42.676;23.352;2023-02-07T13:32:04;17.33;;;7.30;;
56830;SDS011;42713;42.676;23.352;2023-02-07T13:34:41;16.52;;;7.82;;
56830;SDS011;42713;42.676;23.352;2023-02-07T13:37:08;15.25;;;7.85;;
56830;SDS011;42713;42.676;23.352;2023-02-07T13:39:45;16.27;;;7.53;;
56830;SDS011;42713;42.676;23.352;2023-02-07T13:50:53;19.25;;;9.15;;
56830;SDS011;42713;42.676;23.352;2023-02-07T13:53:43;15.60;;;8.43;;
56830;SDS011;42713;42.676;23.352;2023-02-07T13:56:19;17.85;;;9.45;;
56830;SDS011;42713;42.676;23.352;2023-02-07T13:59:36;16.27;;;8.07;;
56830;SDS011;42713;42.676;23.352;2023-02-07T14:02:04;22.48;;;9.18;;
56830;SDS011;42713;42.676;23.352;2023-02-07T14:04:45;21.05;;;8.73;;
56830;SDS011;42713;42.676;23.352;2023-02-07T14:07:18;15.07;;;7.50;;
56830;SDS011;42713;42.676;23.352;2023-02-07T14:09:55;18.80;;;8.23;;
56830;SDS011;42713;42.676;23.352;2023-02-07T14:12:27;17.52;;;8.05;;
56830;SDS011;42713;42.676;23.352;2023-02-07T14:14:55;17.15;;;7.13;;
56830;SDS011;42713;42.676;23.352;2023-02-07T14:20:17;15.85;;;7.20;;
56830;SDS011;42713;42.676;23.352;2023-02-07T14:23:03;17.30;;;7.55;;
56830;SDS011;42713;42.676;23.352;2023-02-07T14:30:20;14.32;;;7.60;;
56830;SDS011;42713;42.676;23.352;2023-02-07T14:33:12;17.23;;;8.00;;
56830;SDS011;42713;42.676;23.352;2023-02-07T14:38:29;18.63;;;8.50;;
56830;SDS011;42713;42.676;23.352;2023-02-07T14:41:01;16.23;;;8.63;;
56830;SDS011;42713;42.676;23.352;2023-02-07T14:43:35;17.95;;;8.93;;
56830;SDS011;42713;42.676;23.352;2023-02-07T14:46:06;17.92;;;8.15;;
56830;SDS011;42713;42.676;23.352;2023-02-07T14:48:37;21.05;;;10.15;;
56830;SDS011;42713;42.676;23.352;2023-02-07T14:51:51;19.45;;;8.45;;
56830;SDS011;42713;42.676;23.352;2023-02-07T14:54:37;18.92;;;9.27;;
56830;SDS011;42713;42.676;23.352;2023-02-07T15:05:26;22.05;;;10.00;;
56830;SDS011;42713;42.676;23.352;2023-02-07T15:07:55;18.25;;;8.30;;
56830;SDS011;42713;42.676;23.352;2023-02-07T15:12:57;16.92;;;8.07;;
56830;SDS011;42713;42.676;23.352;2023-02-07T15:15:27;21.65;;;9.02;;
56830;SDS011;42713;42.676;23.352;2023-02-07T15:17:55;17.05;;;8.23;;
56830;SDS011;42713;42.676;23.352;2023-02-07T15:23:16;16.42;;;8.40;;
56830;SDS011;42713;42.676;23.352;2023-02-07T15:25:42;19.58;;;9.13;;
56830;SDS011;42713;42.676;23.352;2023-02-07T15:33:24;23.83;;;10.95;;
56830;SDS011;42713;42.676;23.352;2023-02-07T15:35:52;22.00;;;10.50;;
56830;SDS011;42713;42.676;23.352;2023-02-07T15:38:22;22.15;;;10.48;;
56830;SDS011;42713;42.676;23.352;2023-02-07T15:43:33;21.45;;;10.25;;
56830;SDS011;42713;42.676;23.352;2023-02-07T15:48:26;20.83;;;10.13;;
56830;SDS011;42713;42.676;23.352;2023-02-07T15:50:52;20.27;;;9.02;;
56830;SDS011;42713;42.676;23.352;2023-02-07T15:53:23;21.70;;;10.05;;
56830;SDS011;42713;42.676;23.352;2023-02-07T15:55:51;19.95;;;10.65;;
56830;SDS011;42713;42.676;23.352;2023-02-07T15:58:27;23.83;;;10.88;;
56830;SDS011;42713;42.676;23.352;2023-02-07T16:00:59;21.90;;;11.25;;
56830;SDS011;42713;42.676;23.352;2023-02-07T16:03:27;25.30;;;10.77;;
56830;SDS011;42713;42.676;23.352;2023-02-07T16:08:40;24.88;;;11.75;;
56830;SDS011;42713;42.676;23.352;2023-02-07T16:11:14;22.73;;;11.40;;
56830;SDS011;42713;42.676;23.352;2023-02-07T16:16:54;24.00;;;10.02;;
56830;SDS011;42713;42.676;23.352;2023-02-07T16:19:27;22.85;;;11.43;;
56830;SDS011;42713;42.676;23.352;2023-02-07T16:22:02;25.52;;;11.98;;
56830;SDS011;42713;42.676;23.352;2023-02-07T16:24:33;25.20;;;12.43;;
56830;SDS011;42713;42.676;23.352;2023-02-07T16:27:00;29.15;;;13.65;;
56830;SDS011;42713;42.676;23.352;2023-02-07T16:29:26;29.13;;;14.95;;
56830;SDS011;42713;42.676;23.352;2023-02-07T16:31:53;25.60;;;13.48;;
56830;SDS011;42713;42.676;23.352;2023-02-07T16:34:19;29.25;;;14.50;;
56830;SDS011;42713;42.676;23.352;2023-02-07T16:36:47;29.95;;;15.30;;
56830;SDS011;42713;42.676;23.352;2023-02-07T16:41:43;28.63;;;13.85;;
56830;SDS011;42713;42.676;23.352;2023-02-07T16:44:14;31.77;;;14.63;;
56830;SDS011;42713;42.676;23.352;2023-02-07T16:46:43;29.98;;;14.10;;
56830;SDS011;42713;42.676;23.352;2023-02-07T16:49:13;31.55;;;14.88;;
56830;SDS011;42713;42.676;23.352;2023-02-07T16:51:40;28.05;;;15.20;;
56830;SDS011;42713;42.676;23.352;2023-02-07T16:54:07;30.88;;;14.25;;
56830;SDS011;42713;42.676;23.352;2023-02-07T16:56:32;31.98;;;15.35;;
56830;SDS011;42713;42.676;23.352;2023-02-07T16:58:58;31.98;;;15.27;;
56830;SDS011;42713;42.676;23.352;2023-02-07T17:01:23;32.88;;;15.50;;
56830;SDS011;42713;42.676;23.352;2023-02-07T17:03:49;33.80;;;15.82;;
56830;SDS011;42713;42.676;23.352;2023-02-07T17:06:15;30.98;;;14.73;;
56830;SDS011;42713;42.676;23.352;2023-02-07T17:08:43;32.58;;;14.18;;
56830;SDS011;42713;42.676;23.352;2023-02-07T17:11:14;30.40;;;14.80;;
56830;SDS011;42713;42.676;23.352;2023-02-07T17:13:43;31.05;;;14.93;;